Terminal Aerodrome Forecast
Issued by NWS

Home | Current Version | Previous Version | Text Only | Print | Product List | Glossary On
Versions: 1 2 3 4 5 6 7 8 9 10 11 12 13 14 15
000
FTUS45 KTFX 011400 AAA
TAFHVR
TAF AMD
KHVR 011400Z 0114/0212 30015G24KT P6SM VCSH SCT050 OVC080
     FM011700 29022G32KT P6SM VCSH SCT060 OVC090
     FM012100 28030G40KT P6SM VCSH OVC100
     FM020600 30015KT P6SM OVC050=

USA.gov is the U.S. government's official web portal to all federal, state and local government web resources and services.